createdAt,value
2023-04-27T00:01:42.194Z,7.00
2023-04-27T00:04:09.440Z,7.00
2023-04-27T00:06:36.625Z,7.00
2023-04-27T00:09:04.514Z,7.00
2023-04-27T00:11:31.723Z,6.90
2023-04-27T00:13:58.701Z,7.10
2023-04-27T00:16:26.208Z,7.00
2023-04-27T00:18:53.146Z,7.00
2023-04-27T00:21:20.213Z,6.90
2023-04-27T00:23:47.148Z,7.20
2023-04-27T00:26:14.080Z,7.00
2023-04-27T00:28:44.186Z,6.90
2023-04-27T00:31:11.344Z,6.90
2023-04-27T00:33:38.364Z,7.00
2023-04-27T00:36:05.656Z,6.90
2023-04-27T00:38:32.536Z,7.00
2023-04-27T00:41:06.626Z,6.90
2023-04-27T00:43:41.295Z,6.80
2023-04-27T00:46:09.225Z,6.80
2023-04-27T00:48:36.597Z,6.80
2023-04-27T00:51:03.820Z,6.80
2023-04-27T00:53:32.082Z,6.80
2023-04-27T00:55:59.092Z,6.70
2023-04-27T00:58:26.338Z,6.70
2023-04-27T01:00:53.370Z,6.60
2023-04-27T01:03:20.594Z,6.60
2023-04-27T01:05:47.566Z,6.60
2023-04-27T01:08:14.963Z,6.70
2023-04-27T01:10:42.340Z,6.70
2023-04-27T01:13:10.704Z,6.70
2023-04-27T01:15:38.265Z,6.60
2023-04-27T01:18:09.966Z,6.70
2023-04-27T01:20:38.874Z,6.70
2023-04-27T01:23:06.449Z,6.60
2023-04-27T01:25:33.343Z,6.50
2023-04-27T01:28:02.752Z,6.60
2023-04-27T01:30:30.802Z,6.60
2023-04-27T01:32:59.247Z,6.60
2023-04-27T01:35:28.252Z,6.50
2023-04-27T01:38:00.261Z,6.40
2023-04-27T01:40:27.200Z,6.40
2023-04-27T01:42:54.058Z,6.70
2023-04-27T01:45:21.045Z,6.50
2023-04-27T01:47:47.934Z,6.50
2023-04-27T01:50:14.817Z,6.30
2023-04-27T01:52:41.649Z,6.30
2023-04-27T01:55:08.853Z,6.40
2023-04-27T01:57:35.837Z,6.50
2023-04-27T02:00:04.801Z,6.50
2023-04-27T02:02:47.590Z,6.40
2023-04-27T02:05:14.562Z,6.50
2023-04-27T02:07:41.426Z,6.60
2023-04-27T02:10:08.845Z,6.40
2023-04-27T02:12:35.733Z,6.40
2023-04-27T02:15:03.833Z,6.30
2023-04-27T02:17:31.853Z,6.30
2023-04-27T02:19:58.857Z,6.30
2023-04-27T02:22:26.962Z,6.40
2023-04-27T02:24:53.842Z,6.30
2023-04-27T02:27:21.022Z,6.40
2023-04-27T02:29:48.239Z,6.40
2023-04-27T02:32:15.629Z,6.50
2023-04-27T02:34:42.549Z,6.50
2023-04-27T02:37:09.407Z,6.50
2023-04-27T02:39:36.538Z,6.40
2023-04-27T02:42:06.682Z,6.30
2023-04-27T02:44:33.528Z,6.40
2023-04-27T02:47:00.605Z,6.60
2023-04-27T02:49:27.735Z,6.40
2023-04-27T02:51:54.571Z,6.50
2023-04-27T02:54:21.414Z,6.50
2023-04-27T02:56:48.319Z,6.30
2023-04-27T02:59:15.440Z,6.30
2023-04-27T03:01:42.777Z,6.40
2023-04-27T03:04:10.002Z,6.50
2023-04-27T03:06:37.073Z,6.40
2023-04-27T03:09:03.984Z,6.30
2023-04-27T03:11:30.968Z,6.20
2023-04-27T03:13:57.916Z,6.20
2023-04-27T03:16:24.921Z,6.20
2023-04-27T03:18:51.811Z,6.20
2023-04-27T03:21:18.674Z,6.20
2023-04-27T03:23:49.251Z,6.20
2023-04-27T03:26:16.757Z,6.20
2023-04-27T03:28:43.689Z,6.10
2023-04-27T03:31:12.619Z,6.10
2023-04-27T03:33:40.543Z,6.10
2023-04-27T03:36:08.757Z,6.10
2023-04-27T03:38:35.847Z,6.40
2023-04-27T03:41:03.392Z,6.50
2023-04-27T03:43:30.282Z,6.60
2023-04-27T03:45:57.485Z,6.60
2023-04-27T03:48:24.588Z,6.40
2023-04-27T03:50:53.687Z,6.40
2023-04-27T03:53:21.010Z,6.30
2023-04-27T03:55:48.602Z,6.30
2023-04-27T03:58:17.531Z,6.30
2023-04-27T04:01:10.264Z,6.30
2023-04-27T04:03:37.952Z,6.20
2023-04-27T04:06:07.829Z,6.20
2023-04-27T04:08:34.737Z,6.40
2023-04-27T04:11:01.796Z,6.40
2023-04-27T04:13:29.656Z,6.40
2023-04-27T04:16:05.034Z,6.30
2023-04-27T04:18:32.375Z,6.40
2023-04-27T04:20:59.368Z,6.50
2023-04-27T04:23:26.910Z,6.50
2023-04-27T04:25:57.723Z,6.50
2023-04-27T04:28:27.575Z,6.50
2023-04-27T04:30:54.718Z,6.60
2023-04-27T04:33:22.050Z,6.50
2023-04-27T04:35:49.043Z,6.50
2023-04-27T04:38:15.962Z,6.60
2023-04-27T04:40:45.779Z,6.60
2023-04-27T04:43:13.417Z,6.50
2023-04-27T04:45:42.869Z,6.60
2023-04-27T04:48:11.753Z,6.50
2023-04-27T04:50:39.719Z,6.50
2023-04-27T04:53:06.602Z,6.40
2023-04-27T04:55:34.300Z,6.40
2023-04-27T04:58:02.030Z,6.30
2023-04-27T05:00:29.677Z,6.30
2023-04-27T05:02:56.609Z,6.40
2023-04-27T05:05:23.599Z,6.50
2023-04-27T05:07:50.447Z,6.40
2023-04-27T05:10:17.479Z,6.60
2023-04-27T05:12:44.679Z,6.70
2023-04-27T05:15:11.900Z,6.70
2023-04-27T05:17:38.790Z,6.50
2023-04-27T05:20:06.632Z,6.40
2023-04-27T05:22:33.496Z,6.30
2023-04-27T05:25:00.454Z,6.30
2023-04-27T05:27:27.430Z,6.30
2023-04-27T05:29:54.267Z,6.30
2023-04-27T05:32:21.317Z,6.30
2023-04-27T05:34:49.549Z,6.20
2023-04-27T05:37:16.629Z,6.50
2023-04-27T05:39:43.496Z,6.40
2023-04-27T05:42:10.590Z,6.50
2023-04-27T05:44:37.444Z,6.60
2023-04-27T05:47:04.399Z,6.70
2023-04-27T05:49:31.716Z,6.60
2023-04-27T05:51:59.104Z,6.50
2023-04-27T05:54:27.585Z,6.70
2023-04-27T05:56:54.527Z,6.80
2023-04-27T05:59:21.958Z,6.90
2023-04-27T06:01:49.159Z,6.90
2023-04-27T06:04:16.268Z,6.90
2023-04-27T06:06:44.884Z,7.00
2023-04-27T06:09:12.018Z,7.00
2023-04-27T06:11:39.102Z,6.80
2023-04-27T06:14:05.966Z,7.10
2023-04-27T06:16:33.001Z,6.90
2023-04-27T06:19:00.037Z,6.70
2023-04-27T06:21:26.900Z,6.70
2023-04-27T06:23:53.742Z,6.90
2023-04-27T06:26:20.618Z,6.90
2023-04-27T06:28:47.465Z,7.00
2023-04-27T06:31:14.328Z,7.10
2023-04-27T06:33:41.672Z,7.20
2023-04-27T06:36:08.609Z,7.20
2023-04-27T06:38:35.496Z,7.20
2023-04-27T06:41:03.131Z,7.20
2023-04-27T06:43:30.896Z,7.10
2023-04-27T06:45:57.826Z,6.90
2023-04-27T06:48:24.841Z,7.10
2023-04-27T06:50:52.087Z,7.10
2023-04-27T06:53:18.976Z,7.30
2023-04-27T06:55:48.312Z,7.00
2023-04-27T06:58:15.456Z,7.20
2023-04-27T07:00:42.385Z,7.10
2023-04-27T07:03:09.471Z,7.30
2023-04-27T07:05:36.490Z,7.30
2023-04-27T07:08:06.177Z,7.30
2023-04-27T07:10:35.233Z,7.30
2023-04-27T07:13:02.194Z,7.30
2023-04-27T07:15:30.588Z,7.40
2023-04-27T07:17:57.634Z,7.60
2023-04-27T07:20:24.795Z,7.50
2023-04-27T07:22:51.608Z,7.60
2023-04-27T07:25:18.516Z,7.70
2023-04-27T07:27:45.548Z,7.70
2023-04-27T07:30:14.157Z,7.60
2023-04-27T07:32:44.518Z,7.80
2023-04-27T07:35:11.472Z,7.90
2023-04-27T07:37:38.499Z,7.80
2023-04-27T07:40:11.564Z,7.90
2023-04-27T07:42:39.931Z,7.80
2023-04-27T07:45:07.638Z,7.90
2023-04-27T07:47:34.657Z,7.90
2023-04-27T07:50:01.538Z,8.20
2023-04-27T07:52:28.485Z,8.00
2023-04-27T07:54:55.347Z,7.90
2023-04-27T07:57:22.193Z,8.00
2023-04-27T07:59:49.150Z,8.10
2023-04-27T08:02:19.667Z,8.20
2023-04-27T08:04:48.100Z,8.20
2023-04-27T08:07:17.585Z,8.20
2023-04-27T08:09:44.917Z,8.30
2023-04-27T08:12:11.839Z,8.30
2023-04-27T08:14:38.689Z,8.50
2023-04-27T08:17:05.742Z,8.60
2023-04-27T08:19:32.724Z,8.70
2023-04-27T08:21:59.584Z,8.70
2023-04-27T08:24:26.366Z,8.70
2023-04-27T08:26:53.265Z,8.80
2023-04-27T08:29:27.910Z,8.70
2023-04-27T08:31:56.858Z,8.80
2023-04-27T08:34:24.217Z,8.90
2023-04-27T08:36:51.323Z,8.90
2023-04-27T08:39:18.496Z,9.00
2023-04-27T08:41:46.439Z,9.20
2023-04-27T08:44:13.455Z,9.10
2023-04-27T08:46:41.837Z,9.30
2023-04-27T08:49:09.905Z,9.40
2023-04-27T08:51:37.311Z,9.30
2023-04-27T08:54:04.595Z,9.40
2023-04-27T08:56:31.837Z,9.30
2023-04-27T08:59:01.737Z,9.30
2023-04-27T09:01:28.610Z,9.30
2023-04-27T09:04:01.301Z,9.40
2023-04-27T09:06:35.829Z,9.50
2023-04-27T09:09:03.981Z,9.50
2023-04-27T09:11:36.512Z,9.60
2023-04-27T09:14:17.977Z,9.70
2023-04-27T09:16:45.107Z,9.80
2023-04-27T09:19:12.256Z,9.80
2023-04-27T09:21:39.333Z,9.80
2023-04-27T09:24:14.048Z,9.60
2023-04-27T09:26:43.056Z,9.50
2023-04-27T09:29:10.332Z,9.70
2023-04-27T09:31:37.470Z,9.50
2023-04-27T09:34:04.642Z,9.60
2023-04-27T09:36:32.765Z,9.30
2023-04-27T09:39:04.719Z,9.40
2023-04-27T09:41:33.311Z,9.60
2023-04-27T09:44:00.988Z,9.80
2023-04-27T09:46:29.542Z,10.00
2023-04-27T09:48:57.615Z,10.00
2023-04-27T09:51:24.529Z,9.90
2023-04-27T09:53:59.272Z,9.90
2023-04-27T09:56:41.162Z,10.10
2023-04-27T09:59:30.194Z,10.20
2023-04-27T10:02:07.329Z,10.30
2023-04-27T10:05:13.591Z,10.30
2023-04-27T10:07:43.244Z,10.10
2023-04-27T10:10:18.428Z,10.10
2023-04-27T10:12:57.096Z,10.20
2023-04-27T10:15:28.553Z,10.20
2023-04-27T10:17:58.885Z,10.30
2023-04-27T10:20:36.382Z,10.40
2023-04-27T10:23:03.912Z,10.60
2023-04-27T10:25:40.585Z,10.60
2023-04-27T10:28:10.323Z,10.50
2023-04-27T10:30:39.135Z,10.40
2023-04-27T10:33:10.995Z,10.60
2023-04-27T10:35:39.195Z,10.70
2023-04-27T10:38:17.402Z,10.80
2023-04-27T10:40:46.150Z,10.80
2023-04-27T10:43:16.259Z,11.00
2023-04-27T10:45:45.427Z,11.10
2023-04-27T10:48:16.008Z,11.00
2023-04-27T10:50:44.917Z,11.20
2023-04-27T10:53:12.668Z,11.30
2023-04-27T10:55:39.720Z,11.60
2023-04-27T10:58:06.919Z,11.60
2023-04-27T11:00:41.665Z,11.60
2023-04-27T11:03:22.421Z,11.70
2023-04-27T11:05:58.749Z,11.80
2023-04-27T11:08:26.103Z,11.60
2023-04-27T11:10:53.149Z,11.80
2023-04-27T11:13:21.990Z,11.90
2023-04-27T11:15:51.531Z,12.10
2023-04-27T11:18:20.676Z,12.10
2023-04-27T11:20:52.869Z,12.10
2023-04-27T11:23:27.981Z,12.30
2023-04-27T11:25:56.431Z,12.40
2023-04-27T11:28:24.444Z,12.50
2023-04-27T11:30:59.184Z,12.40
2023-04-27T11:33:27.185Z,12.40
2023-04-27T11:35:54.824Z,12.20
2023-04-27T11:38:22.064Z,12.10
2023-04-27T11:41:06.113Z,11.90
2023-04-27T11:43:33.665Z,12.10
2023-04-27T11:46:05.994Z,11.90
2023-04-27T11:48:33.076Z,11.90
2023-04-27T11:51:01.346Z,12.10
2023-04-27T11:53:34.153Z,12.30
2023-04-27T11:56:11.169Z,12.20
2023-04-27T11:58:39.773Z,12.20
2023-04-27T12:01:07.652Z,12.20
2023-04-27T12:03:35.124Z,12.10
2023-04-27T12:08:32.295Z,12.00
2023-04-27T12:10:59.183Z,12.00
2023-04-27T12:13:26.043Z,12.00
2023-04-27T12:15:52.936Z,12.10
2023-04-27T12:18:20.795Z,12.20
2023-04-27T12:20:47.689Z,12.20
2023-04-27T12:23:14.709Z,12.40
2023-04-27T12:25:41.676Z,12.50
2023-04-27T12:28:08.977Z,12.60
2023-04-27T12:30:36.239Z,12.50
2023-04-27T12:33:09.675Z,12.60
2023-04-27T12:35:36.850Z,12.70
2023-04-27T12:38:03.770Z,12.90
2023-04-27T12:40:30.796Z,12.80
2023-04-27T12:43:00.524Z,12.80
2023-04-27T12:45:28.081Z,12.90
2023-04-27T12:48:03.476Z,12.90
2023-04-27T12:50:32.443Z,13.00
2023-04-27T12:53:00.177Z,13.00
2023-04-27T12:55:33.737Z,13.20
2023-04-27T12:58:02.042Z,13.20
2023-04-27T13:00:29.852Z,13.10
2023-04-27T13:02:57.417Z,13.20
2023-04-27T13:05:24.504Z,13.20
2023-04-27T13:07:51.345Z,13.30
2023-04-27T13:10:18.256Z,13.30
2023-04-27T13:12:45.685Z,13.30
2023-04-27T13:15:12.554Z,13.40
2023-04-27T13:17:40.261Z,13.40
2023-04-27T13:20:09.756Z,13.50
2023-04-27T13:22:36.721Z,13.50
2023-04-27T13:25:04.996Z,13.50
2023-04-27T13:27:31.958Z,13.70
2023-04-27T13:29:58.851Z,13.80
2023-04-27T13:32:26.828Z,13.80
2023-04-27T13:34:53.677Z,13.90
2023-04-27T13:37:20.554Z,14.20
2023-04-27T13:39:47.380Z,14.10
2023-04-27T13:42:14.322Z,14.10
2023-04-27T13:44:41.453Z,14.20
2023-04-27T13:47:08.400Z,14.20
2023-04-27T13:49:35.288Z,14.20
2023-04-27T13:52:02.189Z,14.10
2023-04-27T13:54:29.145Z,14.10
2023-04-27T13:56:56.345Z,14.10
2023-04-27T13:59:23.261Z,14.00
2023-04-27T14:01:50.453Z,14.10
2023-04-27T14:04:17.421Z,14.10
2023-04-27T14:06:45.315Z,14.30
2023-04-27T14:09:12.277Z,14.30
2023-04-27T14:11:48.925Z,14.50
2023-04-27T14:14:22.741Z,14.30
2023-04-27T14:16:51.222Z,14.30
2023-04-27T14:19:20.433Z,14.40
2023-04-27T14:21:48.141Z,14.40
2023-04-27T14:24:15.238Z,14.40
2023-04-27T14:26:44.269Z,14.40
2023-04-27T14:29:11.846Z,14.50
2023-04-27T14:31:40.029Z,14.40
2023-04-27T14:34:07.842Z,14.50
2023-04-27T14:36:35.015Z,14.60
2023-04-27T14:39:01.928Z,14.60
2023-04-27T14:41:28.857Z,14.50
2023-04-27T14:43:55.973Z,14.50
2023-04-27T14:46:23.339Z,14.60
2023-04-27T14:48:51.260Z,14.80
2023-04-27T14:51:18.610Z,14.70
2023-04-27T14:53:45.480Z,14.80
2023-04-27T14:56:12.390Z,14.60
2023-04-27T14:58:39.353Z,14.70
2023-04-27T15:01:07.656Z,14.80
2023-04-27T15:03:35.025Z,14.80
2023-04-27T15:06:03.125Z,14.90
2023-04-27T15:08:32.708Z,14.90
2023-04-27T15:11:01.243Z,14.90
2023-04-27T15:13:28.504Z,14.90
2023-04-27T15:15:56.643Z,14.80
2023-04-27T15:18:24.402Z,15.20
2023-04-27T15:20:55.606Z,15.20
2023-04-27T15:23:24.039Z,15.40
2023-04-27T15:25:54.750Z,15.50
2023-04-27T15:28:23.027Z,15.50
2023-04-27T15:30:50.661Z,15.40
2023-04-27T15:33:18.346Z,15.50
2023-04-27T15:35:45.267Z,15.60
2023-04-27T15:38:16.197Z,15.40
2023-04-27T15:40:43.179Z,15.30
2023-04-27T15:43:10.069Z,15.20
2023-04-27T15:45:37.140Z,15.00
2023-04-27T15:48:04.384Z,15.00
2023-04-27T15:50:31.416Z,14.80
2023-04-27T15:52:58.290Z,14.80
2023-04-27T15:55:25.367Z,14.70
2023-04-27T15:57:53.157Z,14.60
2023-04-27T16:00:22.374Z,14.50
2023-04-27T16:02:49.733Z,14.40
2023-04-27T16:05:16.938Z,14.40
2023-04-27T16:07:44.824Z,14.40
2023-04-27T16:10:12.372Z,14.20
2023-04-27T16:12:39.756Z,14.10
2023-04-27T16:15:09.991Z,14.20
2023-04-27T16:17:38.296Z,14.10
2023-04-27T16:20:06.846Z,14.10
2023-04-27T16:22:34.852Z,14.10
2023-04-27T16:25:02.362Z,14.00
2023-04-27T16:27:29.246Z,14.10
2023-04-27T16:29:56.752Z,13.80
2023-04-27T16:32:23.826Z,13.80
2023-04-27T16:34:51.077Z,13.80
2023-04-27T16:37:18.028Z,13.70
2023-04-27T16:39:45.219Z,13.60
2023-04-27T16:42:16.304Z,13.60
2023-04-27T16:44:43.273Z,13.60
2023-04-27T16:47:10.180Z,13.60
2023-04-27T16:49:37.837Z,13.60
2023-04-27T16:52:05.268Z,13.50
2023-04-27T16:54:32.144Z,13.50
2023-04-27T16:56:59.140Z,13.40
2023-04-27T16:59:26.058Z,13.40
2023-04-27T17:01:53.054Z,13.30
2023-04-27T17:04:20.272Z,13.40
2023-04-27T17:06:48.435Z,13.30
2023-04-27T17:09:15.552Z,13.30
2023-04-27T17:11:42.650Z,13.20
2023-04-27T17:14:09.496Z,13.10
2023-04-27T17:16:36.442Z,13.10
2023-04-27T17:19:03.883Z,13.20
2023-04-27T17:21:31.794Z,13.20
2023-04-27T17:23:58.923Z,13.20
2023-04-27T17:26:26.111Z,13.10
2023-04-27T17:28:53.087Z,13.10
2023-04-27T17:31:20.100Z,13.00
2023-04-27T17:33:47.013Z,13.00
2023-04-27T17:36:15.089Z,12.90
2023-04-27T17:38:42.094Z,12.80
2023-04-27T17:41:09.156Z,12.80
2023-04-27T17:43:37.697Z,12.70
2023-04-27T17:46:09.832Z,12.70
2023-04-27T17:48:37.519Z,12.60
2023-04-27T17:51:04.501Z,12.60
2023-04-27T17:53:31.532Z,12.50
2023-04-27T17:55:58.489Z,12.50
2023-04-27T17:58:25.704Z,12.50
2023-04-27T18:00:52.758Z,12.50
2023-04-27T18:03:19.860Z,12.30
2023-04-27T18:05:46.794Z,12.20
2023-04-27T18:08:13.748Z,12.20
2023-04-27T18:10:41.386Z,12.10
2023-04-27T18:13:08.339Z,12.00
2023-04-27T18:15:35.264Z,11.90
2023-04-27T18:18:02.151Z,11.90
2023-04-27T18:20:29.440Z,11.80
2023-04-27T18:22:56.709Z,11.70
2023-04-27T18:25:23.629Z,11.60
2023-04-27T18:27:55.782Z,11.50
2023-04-27T18:30:22.995Z,11.40
2023-04-27T18:32:49.967Z,11.30
2023-04-27T18:35:16.880Z,11.20
2023-04-27T18:37:48.186Z,11.20
2023-04-27T18:40:19.302Z,11.10
2023-04-27T18:42:46.205Z,10.60
2023-04-27T18:45:13.297Z,10.50
2023-04-27T18:47:40.254Z,10.30
2023-04-27T18:50:07.893Z,10.20
2023-04-27T18:52:35.042Z,10.00
2023-04-27T18:55:01.984Z,10.00
2023-04-27T18:57:28.849Z,9.90
2023-04-27T18:59:56.080Z,9.80
2023-04-27T19:02:25.117Z,9.90
2023-04-27T19:05:01.460Z,9.80
2023-04-27T19:07:34.518Z,9.80
2023-04-27T19:10:01.368Z,9.80
2023-04-27T19:12:28.187Z,9.70
2023-04-27T19:14:55.129Z,9.80
2023-04-27T19:17:22.219Z,9.50
2023-04-27T19:19:49.300Z,9.50
2023-04-27T19:22:16.226Z,9.50
2023-04-27T19:24:43.079Z,9.70
2023-04-27T19:27:11.592Z,9.70
2023-04-27T19:29:53.157Z,10.00
2023-04-27T19:32:21.488Z,9.90
2023-04-27T19:34:49.071Z,9.90
2023-04-27T19:37:16.138Z,9.80
2023-04-27T19:39:43.108Z,10.00
2023-04-27T19:42:09.997Z,10.10
2023-04-27T19:44:36.891Z,10.20
2023-04-27T19:47:03.789Z,10.40
2023-04-27T19:49:32.732Z,10.40
2023-04-27T19:52:03.495Z,10.40
2023-04-27T19:54:30.533Z,10.40
2023-04-27T19:56:57.565Z,10.50
2023-04-27T19:59:24.474Z,10.60
2023-04-27T20:01:51.944Z,10.60
2023-04-27T20:04:19.296Z,10.70
2023-04-27T20:06:47.321Z,10.60
2023-04-27T20:09:14.162Z,10.60
2023-04-27T20:11:41.030Z,10.70
2023-04-27T20:14:07.877Z,10.50
2023-04-27T20:16:34.805Z,10.60
2023-04-27T20:19:01.686Z,10.80
2023-04-27T20:21:29.493Z,10.80
2023-04-27T20:23:56.428Z,11.10
2023-04-27T20:26:24.453Z,11.00
2023-04-27T20:28:51.366Z,11.20
2023-04-27T20:31:18.243Z,11.20
2023-04-27T20:33:45.141Z,11.10
2023-04-27T20:36:17.348Z,11.10
2023-04-27T20:38:45.469Z,11.10
2023-04-27T20:41:12.427Z,11.10
2023-04-27T20:43:40.073Z,11.20
2023-04-27T20:46:08.014Z,11.20
2023-04-27T20:48:34.976Z,11.20
2023-04-27T20:51:02.508Z,11.10
2023-04-27T20:53:29.779Z,11.20
2023-04-27T20:55:57.082Z,11.10
2023-04-27T20:58:24.122Z,11.10
2023-04-27T21:00:51.529Z,11.10
2023-04-27T21:03:18.614Z,11.00
2023-04-27T21:05:45.999Z,11.10
2023-04-27T21:08:13.048Z,11.00
2023-04-27T21:10:39.925Z,11.00
2023-04-27T21:13:07.143Z,11.00
2023-04-27T21:15:34.124Z,11.10
2023-04-27T21:18:01.219Z,11.20
2023-04-27T21:20:28.159Z,11.10
2023-04-27T21:22:55.068Z,11.10
2023-04-27T21:25:23.618Z,11.10
2023-04-27T21:27:51.029Z,11.10
2023-04-27T21:30:17.910Z,11.10
2023-04-27T21:32:44.947Z,11.10
2023-04-27T21:35:11.945Z,11.10
2023-04-27T21:37:38.820Z,11.10
2023-04-27T21:40:06.469Z,11.10
2023-04-27T21:42:33.387Z,11.10
2023-04-27T21:45:00.726Z,11.10
2023-04-27T21:47:27.685Z,11.10
2023-04-27T21:49:54.528Z,11.10
2023-04-27T21:52:21.812Z,11.10
2023-04-27T21:54:48.789Z,11.10
2023-04-27T21:57:16.580Z,11.00
2023-04-27T21:59:44.634Z,11.00
2023-04-27T22:02:11.554Z,11.00
2023-04-27T22:04:39.105Z,11.00
2023-04-27T22:07:08.207Z,11.00
2023-04-27T22:09:35.823Z,11.00
2023-04-27T22:12:03.505Z,11.00
2023-04-27T22:14:31.371Z,11.10
2023-04-27T22:16:58.568Z,11.10
2023-04-27T22:19:25.477Z,11.10
2023-04-27T22:21:52.519Z,11.10
2023-04-27T22:24:19.438Z,11.10
2023-04-27T22:26:48.367Z,11.10
2023-04-27T22:29:16.330Z,11.10
2023-04-27T22:31:44.488Z,11.20
2023-04-27T22:34:14.835Z,11.10
2023-04-27T22:36:42.009Z,11.10
2023-04-27T22:39:08.974Z,11.00
2023-04-27T22:41:36.193Z,11.10
2023-04-27T22:44:03.139Z,11.10
2023-04-27T22:46:30.093Z,11.10
2023-04-27T22:48:58.696Z,11.10
2023-04-27T22:51:27.287Z,11.10
2023-04-27T22:53:54.662Z,11.20
2023-04-27T22:56:22.535Z,11.20
2023-04-27T22:58:49.516Z,11.10
2023-04-27T23:01:16.646Z,11.20
2023-04-27T23:03:43.633Z,11.20
2023-04-27T23:06:14.468Z,11.10
2023-04-27T23:08:46.955Z,11.10
2023-04-27T23:11:15.489Z,11.20
2023-04-27T23:13:42.457Z,11.20
2023-04-27T23:16:10.151Z,11.20
2023-04-27T23:18:37.268Z,11.10
2023-04-27T23:21:04.305Z,11.20
2023-04-27T23:23:31.296Z,11.20
2023-04-27T23:25:58.228Z,11.20
2023-04-27T23:28:25.147Z,11.20
2023-04-27T23:30:53.909Z,11.10
2023-04-27T23:33:21.883Z,11.00
2023-04-27T23:35:48.852Z,11.00
2023-04-27T23:38:15.792Z,11.10
2023-04-27T23:40:42.646Z,11.10
2023-04-27T23:43:09.536Z,11.20
2023-04-27T23:45:36.457Z,11.20
2023-04-27T23:48:03.986Z,11.20
2023-04-27T23:50:30.950Z,11.30
2023-04-27T23:52:57.791Z,11.20
2023-04-27T23:55:24.663Z,11.10
2023-04-27T23:57:52.546Z,11.40
